sensor_id;sensor_type;location;lat;lon;timestamp;pressure;altitude;pressure_sealevel;temperature;humidity
41230;BME280;26964;50.428;19.218;2023-12-28T00:00:08;1021.6;;;-0.3;75.4
41230;BME280;26964;50.428;19.218;2023-12-28T00:01:08;1021.7;;;-0.3;75.4
41230;BME280;26964;50.428;19.218;2023-12-28T00:02:07;1021.8;;;-0.3;75.4
41230;BME280;26964;50.428;19.218;2023-12-28T00:03:07;1021.7;;;-0.3;75.4
41230;BME280;26964;50.428;19.218;2023-12-28T00:04:07;1021.8;;;-0.2;75.4
41230;BME280;26964;50.428;19.218;2023-12-28T00:05:07;1021.7;;;-0.3;75.4
41230;BME280;26964;50.428;19.218;2023-12-28T00:06:07;1021.6;;;-0.3;75.4
41230;BME280;26964;50.428;19.218;2023-12-28T00:07:07;1021.7;;;-0.2;75.4
41230;BME280;26964;50.428;19.218;2023-12-28T00:08:08;1021.7;;;-0.2;75.5
41230;BME280;26964;50.428;19.218;2023-12-28T00:09:07;1021.6;;;-0.2;75.5
41230;BME280;26964;50.428;19.218;2023-12-28T00:10:08;1021.6;;;-0.2;75.5
41230;BME280;26964;50.428;19.218;2023-12-28T00:11:08;1021.5;;;-0.2;75.4
41230;BME280;26964;50.428;19.218;2023-12-28T00:12:07;1021.5;;;-0.2;75.4
41230;BME280;26964;50.428;19.218;2023-12-28T00:13:07;1021.5;;;-0.2;75.4
41230;BME280;26964;50.428;19.218;2023-12-28T00:14:07;1021.6;;;-0.2;75.4
41230;BME280;26964;50.428;19.218;2023-12-28T00:15:08;1021.6;;;-0.2;75.4
41230;BME280;26964;50.428;19.218;2023-12-28T00:16:08;1021.5;;;-0.2;75.4
41230;BME280;26964;50.428;19.218;2023-12-28T00:17:10;1021.6;;;-0.3;75.4
41230;BME280;26964;50.428;19.218;2023-12-28T00:18:07;1021.6;;;-0.3;75.4
41230;BME280;26964;50.428;19.218;2023-12-28T00:19:12;1021.6;;;-0.3;75.4
41230;BME280;26964;50.428;19.218;2023-12-28T00:20:08;1021.6;;;-0.3;75.5
41230;BME280;26964;50.428;19.218;2023-12-28T00:21:07;1021.6;;;-0.3;75.5
41230;BME280;26964;50.428;19.218;2023-12-28T00:22:07;1021.6;;;-0.3;75.5
41230;BME280;26964;50.428;19.218;2023-12-28T00:23:07;1021.6;;;-0.3;75.5
41230;BME280;26964;50.428;19.218;2023-12-28T00:24:08;1021.6;;;-0.3;75.5
41230;BME280;26964;50.428;19.218;2023-12-28T00:25:07;1021.6;;;-0.3;75.5
41230;BME280;26964;50.428;19.218;2023-12-28T00:26:07;1021.6;;;-0.3;75.5
41230;BME280;26964;50.428;19.218;2023-12-28T00:27:08;1021.6;;;-0.3;75.5
41230;BME280;26964;50.428;19.218;2023-12-28T00:28:08;1021.5;;;-0.3;75.5
41230;BME280;26964;50.428;19.218;2023-12-28T00:29:07;1021.5;;;-0.3;75.5
41230;BME280;26964;50.428;19.218;2023-12-28T00:30:07;1021.5;;;-0.3;75.5
41230;BME280;26964;50.428;19.218;2023-12-28T00:31:09;1021.5;;;-0.3;75.5
41230;BME280;26964;50.428;19.218;2023-12-28T00:32:07;1021.4;;;-0.3;75.6
41230;BME280;26964;50.428;19.218;2023-12-28T00:33:08;1021.4;;;-0.3;75.5
41230;BME280;26964;50.428;19.218;2023-12-28T00:34:08;1021.5;;;-0.3;75.5
41230;BME280;26964;50.428;19.218;2023-12-28T00:35:07;1021.5;;;-0.3;75.5
41230;BME280;26964;50.428;19.218;2023-12-28T00:36:07;1021.4;;;-0.3;75.5
41230;BME280;26964;50.428;19.218;2023-12-28T00:37:08;1021.4;;;-0.3;75.5
41230;BME280;26964;50.428;19.218;2023-12-28T00:38:10;1021.4;;;-0.3;75.5
41230;BME280;26964;50.428;19.218;2023-12-28T00:39:08;1021.4;;;-0.3;75.5
41230;BME280;26964;50.428;19.218;2023-12-28T00:40:07;1021.3;;;-0.3;75.5
41230;BME280;26964;50.428;19.218;2023-12-28T00:41:07;1021.3;;;-0.3;75.6
41230;BME280;26964;50.428;19.218;2023-12-28T00:42:07;1021.2;;;-0.3;75.6
41230;BME280;26964;50.428;19.218;2023-12-28T00:43:07;1021.2;;;-0.3;75.6
41230;BME280;26964;50.428;19.218;2023-12-28T00:44:07;1021.2;;;-0.3;75.6
41230;BME280;26964;50.428;19.218;2023-12-28T00:45:08;1021.2;;;-0.3;75.5
41230;BME280;26964;50.428;19.218;2023-12-28T00:46:08;1021.2;;;-0.3;75.6
41230;BME280;26964;50.428;19.218;2023-12-28T00:47:07;1021.3;;;-0.4;75.5
41230;BME280;26964;50.428;19.218;2023-12-28T00:48:07;1021.2;;;-0.4;75.6
41230;BME280;26964;50.428;19.218;2023-12-28T00:49:07;1021.2;;;-0.4;75.6
41230;BME280;26964;50.428;19.218;2023-12-28T00:50:08;1021.2;;;-0.4;75.5
41230;BME280;26964;50.428;19.218;2023-12-28T00:51:07;1021.2;;;-0.4;75.5
41230;BME280;26964;50.428;19.218;2023-12-28T00:52:07;1021.3;;;-0.4;75.5
41230;BME280;26964;50.428;19.218;2023-12-28T00:53:07;1021.3;;;-0.4;75.6
41230;BME280;26964;50.428;19.218;2023-12-28T00:54:08;1021.1;;;-0.4;75.6
41230;BME280;26964;50.428;19.218;2023-12-28T00:55:07;1021.2;;;-0.4;75.6
41230;BME280;26964;50.428;19.218;2023-12-28T00:56:09;1021.2;;;-0.4;75.6
41230;BME280;26964;50.428;19.218;2023-12-28T00:57:07;1021.2;;;-0.4;75.6
41230;BME280;26964;50.428;19.218;2023-12-28T00:58:08;1021.1;;;-0.4;75.6
41230;BME280;26964;50.428;19.218;2023-12-28T00:59:12;1021.1;;;-0.4;75.7
41230;BME280;26964;50.428;19.218;2023-12-28T01:00:08;1021.1;;;-0.4;75.7
41230;BME280;26964;50.428;19.218;2023-12-28T01:01:08;1021.0;;;-0.4;75.7
41230;BME280;26964;50.428;19.218;2023-12-28T01:02:07;1021.1;;;-0.4;75.7
41230;BME280;26964;50.428;19.218;2023-12-28T01:03:07;1021.1;;;-0.4;75.7
41230;BME280;26964;50.428;19.218;2023-12-28T01:04:07;1021.1;;;-0.4;75.7
41230;BME280;26964;50.428;19.218;2023-12-28T01:05:08;1021.1;;;-0.4;75.7
41230;BME280;26964;50.428;19.218;2023-12-28T01:06:07;1021.0;;;-0.4;75.7
41230;BME280;26964;50.428;19.218;2023-12-28T01:07:07;1021.1;;;-0.4;75.7
41230;BME280;26964;50.428;19.218;2023-12-28T01:08:07;1021.1;;;-0.4;75.7
41230;BME280;26964;50.428;19.218;2023-12-28T01:09:07;1021.2;;;-0.4;75.7
41230;BME280;26964;50.428;19.218;2023-12-28T01:10:07;1021.1;;;-0.5;75.7
41230;BME280;26964;50.428;19.218;2023-12-28T01:11:07;1021.0;;;-0.5;75.7
41230;BME280;26964;50.428;19.218;2023-12-28T01:12:07;1021.1;;;-0.5;75.7
41230;BME280;26964;50.428;19.218;2023-12-28T01:13:07;1021.0;;;-0.5;75.6
41230;BME280;26964;50.428;19.218;2023-12-28T01:14:07;1020.9;;;-0.5;75.6
41230;BME280;26964;50.428;19.218;2023-12-28T01:15:08;1021.0;;;-0.5;75.6
41230;BME280;26964;50.428;19.218;2023-12-28T01:16:07;1020.9;;;-0.5;75.6
41230;BME280;26964;50.428;19.218;2023-12-28T01:17:07;1021.0;;;-0.5;75.6
41230;BME280;26964;50.428;19.218;2023-12-28T01:18:07;1020.9;;;-0.5;75.6
41230;BME280;26964;50.428;19.218;2023-12-28T01:19:09;1020.9;;;-0.5;75.6
41230;BME280;26964;50.428;19.218;2023-12-28T01:20:11;1020.9;;;-0.6;75.6
41230;BME280;26964;50.428;19.218;2023-12-28T01:21:07;1020.8;;;-0.6;75.7
41230;BME280;26964;50.428;19.218;2023-12-28T01:22:07;1020.8;;;-0.6;75.7
41230;BME280;26964;50.428;19.218;2023-12-28T01:23:07;1020.9;;;-0.6;75.7
41230;BME280;26964;50.428;19.218;2023-12-28T01:24:07;1020.8;;;-0.6;75.7
41230;BME280;26964;50.428;19.218;2023-12-28T01:25:07;1020.8;;;-0.6;75.7
41230;BME280;26964;50.428;19.218;2023-12-28T01:26:12;1020.8;;;-0.6;75.7
41230;BME280;26964;50.428;19.218;2023-12-28T01:27:07;1020.7;;;-0.6;75.7
41230;BME280;26964;50.428;19.218;2023-12-28T01:28:07;1020.7;;;-0.6;75.8
41230;BME280;26964;50.428;19.218;2023-12-28T01:29:07;1020.7;;;-0.6;75.8
41230;BME280;26964;50.428;19.218;2023-12-28T01:30:10;1020.8;;;-0.6;75.8
41230;BME280;26964;50.428;19.218;2023-12-28T01:31:08;1020.7;;;-0.6;75.7
41230;BME280;26964;50.428;19.218;2023-12-28T01:32:08;1020.7;;;-0.6;75.7
41230;BME280;26964;50.428;19.218;2023-12-28T01:33:07;1020.7;;;-0.6;75.7
41230;BME280;26964;50.428;19.218;2023-12-28T01:34:07;1020.7;;;-0.6;75.6
41230;BME280;26964;50.428;19.218;2023-12-28T01:35:07;1020.7;;;-0.6;75.7
41230;BME280;26964;50.428;19.218;2023-12-28T01:37:07;1020.7;;;-0.6;75.7
41230;BME280;26964;50.428;19.218;2023-12-28T01:38:07;1020.7;;;-0.7;75.7
41230;BME280;26964;50.428;19.218;2023-12-28T01:39:07;1020.7;;;-0.6;75.8
41230;BME280;26964;50.428;19.218;2023-12-28T01:40:10;1020.8;;;-0.6;75.8
41230;BME280;26964;50.428;19.218;2023-12-28T01:41:14;1020.7;;;-0.7;75.8
41230;BME280;26964;50.428;19.218;2023-12-28T01:42:07;1020.7;;;-0.7;75.8
41230;BME280;26964;50.428;19.218;2023-12-28T01:43:07;1020.7;;;-0.7;75.8
41230;BME280;26964;50.428;19.218;2023-12-28T01:44:07;1020.6;;;-0.7;75.9
41230;BME280;26964;50.428;19.218;2023-12-28T01:45:07;1020.7;;;-0.7;75.8
41230;BME280;26964;50.428;19.218;2023-12-28T01:46:10;1020.7;;;-0.7;75.8
41230;BME280;26964;50.428;19.218;2023-12-28T01:47:07;1020.7;;;-0.6;75.9
41230;BME280;26964;50.428;19.218;2023-12-28T01:48:08;1020.6;;;-0.6;75.9
41230;BME280;26964;50.428;19.218;2023-12-28T01:49:07;1020.7;;;-0.7;75.9
41230;BME280;26964;50.428;19.218;2023-12-28T01:50:08;1020.6;;;-0.7;75.9
41230;BME280;26964;50.428;19.218;2023-12-28T01:51:07;1020.7;;;-0.7;75.9
41230;BME280;26964;50.428;19.218;2023-12-28T01:52:10;1020.5;;;-0.7;75.9
41230;BME280;26964;50.428;19.218;2023-12-28T01:53:08;1020.7;;;-0.6;75.9
41230;BME280;26964;50.428;19.218;2023-12-28T01:54:07;1020.7;;;-0.6;75.9
41230;BME280;26964;50.428;19.218;2023-12-28T01:55:07;1020.6;;;-0.6;75.9
41230;BME280;26964;50.428;19.218;2023-12-28T01:56:07;1020.6;;;-0.6;76.0
41230;BME280;26964;50.428;19.218;2023-12-28T01:57:07;1020.6;;;-0.6;76.0
41230;BME280;26964;50.428;19.218;2023-12-28T01:58:07;1020.5;;;-0.6;76.0
41230;BME280;26964;50.428;19.218;2023-12-28T01:59:07;1020.6;;;-0.6;76.0
41230;BME280;26964;50.428;19.218;2023-12-28T02:00:10;1020.5;;;-0.6;76.0
41230;BME280;26964;50.428;19.218;2023-12-28T02:01:11;1020.6;;;-0.6;76.0
41230;BME280;26964;50.428;19.218;2023-12-28T02:02:07;1020.5;;;-0.6;76.0
41230;BME280;26964;50.428;19.218;2023-12-28T02:03:07;1020.5;;;-0.6;76.0
41230;BME280;26964;50.428;19.218;2023-12-28T02:04:07;1020.4;;;-0.6;76.0
41230;BME280;26964;50.428;19.218;2023-12-28T02:05:07;1020.4;;;-0.6;76.0
41230;BME280;26964;50.428;19.218;2023-12-28T02:06:08;1020.4;;;-0.6;76.0
41230;BME280;26964;50.428;19.218;2023-12-28T02:07:08;1020.4;;;-0.6;76.0
41230;BME280;26964;50.428;19.218;2023-12-28T02:08:07;1020.4;;;-0.6;76.0
41230;BME280;26964;50.428;19.218;2023-12-28T02:09:07;1020.4;;;-0.6;76.0
41230;BME280;26964;50.428;19.218;2023-12-28T02:10:07;1020.4;;;-0.6;76.0
41230;BME280;26964;50.428;19.218;2023-12-28T02:11:07;1020.4;;;-0.6;76.0
41230;BME280;26964;50.428;19.218;2023-12-28T02:12:07;1020.4;;;-0.6;76.0
41230;BME280;26964;50.428;19.218;2023-12-28T02:13:08;1020.4;;;-0.6;76.0
41230;BME280;26964;50.428;19.218;2023-12-28T02:14:07;1020.4;;;-0.6;76.0
41230;BME280;26964;50.428;19.218;2023-12-28T02:15:08;1020.4;;;-0.6;75.9
41230;BME280;26964;50.428;19.218;2023-12-28T02:16:11;1020.3;;;-0.6;76.0
41230;BME280;26964;50.428;19.218;2023-12-28T02:17:12;1020.4;;;-0.6;76.0
41230;BME280;26964;50.428;19.218;2023-12-28T02:18:11;1020.3;;;-0.6;76.0
41230;BME280;26964;50.428;19.218;2023-12-28T02:19:13;1020.4;;;-0.6;76.0
41230;BME280;26964;50.428;19.218;2023-12-28T02:20:08;1020.4;;;-0.6;76.0
41230;BME280;26964;50.428;19.218;2023-12-28T02:21:08;1020.4;;;-0.6;76.0
41230;BME280;26964;50.428;19.218;2023-12-28T02:22:13;1020.4;;;-0.6;76.0
41230;BME280;26964;50.428;19.218;2023-12-28T02:23:06;1020.4;;;-0.6;76.1
41230;BME280;26964;50.428;19.218;2023-12-28T02:24:07;1020.4;;;-0.6;76.1
41230;BME280;26964;50.428;19.218;2023-12-28T02:25:08;1020.3;;;-0.6;76.1
41230;BME280;26964;50.428;19.218;2023-12-28T02:26:07;1020.4;;;-0.6;76.0
41230;BME280;26964;50.428;19.218;2023-12-28T02:27:07;1020.4;;;-0.6;76.0
41230;BME280;26964;50.428;19.218;2023-12-28T02:28:07;1020.4;;;-0.6;76.1
41230;BME280;26964;50.428;19.218;2023-12-28T02:29:07;1020.4;;;-0.6;76.1
41230;BME280;26964;50.428;19.218;2023-12-28T02:30:08;1020.5;;;-0.6;76.1
41230;BME280;26964;50.428;19.218;2023-12-28T02:31:08;1020.5;;;-0.6;76.1
41230;BME280;26964;50.428;19.218;2023-12-28T02:32:10;1020.4;;;-0.6;76.1
41230;BME280;26964;50.428;19.218;2023-12-28T02:33:11;1020.4;;;-0.6;76.1
41230;BME280;26964;50.428;19.218;2023-12-28T02:34:12;1020.4;;;-0.6;76.2
41230;BME280;26964;50.428;19.218;2023-12-28T02:36:11;1020.3;;;-0.6;76.1
41230;BME280;26964;50.428;19.218;2023-12-28T02:37:07;1020.3;;;-0.6;76.1
41230;BME280;26964;50.428;19.218;2023-12-28T02:38:09;1020.3;;;-0.6;76.2
41230;BME280;26964;50.428;19.218;2023-12-28T02:39:07;1020.3;;;-0.6;76.1
41230;BME280;26964;50.428;19.218;2023-12-28T02:40:07;1020.3;;;-0.6;76.1
41230;BME280;26964;50.428;19.218;2023-12-28T02:41:07;1020.4;;;-0.6;76.1
41230;BME280;26964;50.428;19.218;2023-12-28T02:42:08;1020.3;;;-0.6;76.1
41230;BME280;26964;50.428;19.218;2023-12-28T02:43:07;1020.4;;;-0.6;76.1
41230;BME280;26964;50.428;19.218;2023-12-28T02:44:07;1020.4;;;-0.6;76.1
41230;BME280;26964;50.428;19.218;2023-12-28T02:45:07;1020.4;;;-0.6;76.1
41230;BME280;26964;50.428;19.218;2023-12-28T02:46:07;1020.4;;;-0.6;76.1
41230;BME280;26964;50.428;19.218;2023-12-28T02:47:07;1020.4;;;-0.6;76.2
41230;BME280;26964;50.428;19.218;2023-12-28T02:48:08;1020.4;;;-0.6;76.2
41230;BME280;26964;50.428;19.218;2023-12-28T02:49:07;1020.4;;;-0.6;76.2
41230;BME280;26964;50.428;19.218;2023-12-28T02:50:07;1020.3;;;-0.6;76.2
41230;BME280;26964;50.428;19.218;2023-12-28T02:51:07;1020.4;;;-0.6;76.1
41230;BME280;26964;50.428;19.218;2023-12-28T02:52:07;1020.4;;;-0.6;76.1
41230;BME280;26964;50.428;19.218;2023-12-28T02:53:07;1020.4;;;-0.6;76.1
41230;BME280;26964;50.428;19.218;2023-12-28T02:54:07;1020.4;;;-0.6;76.1
41230;BME280;26964;50.428;19.218;2023-12-28T02:55:07;1020.3;;;-0.6;76.1
41230;BME280;26964;50.428;19.218;2023-12-28T02:56:07;1020.3;;;-0.6;76.0
41230;BME280;26964;50.428;19.218;2023-12-28T02:57:07;1020.4;;;-0.6;76.0
41230;BME280;26964;50.428;19.218;2023-12-28T02:58:07;1020.3;;;-0.6;76.0
41230;BME280;26964;50.428;19.218;2023-12-28T02:59:07;1020.3;;;-0.6;76.1
41230;BME280;26964;50.428;19.218;2023-12-28T03:00:08;1020.3;;;-0.6;76.1
41230;BME280;26964;50.428;19.218;2023-12-28T03:01:07;1020.1;;;-0.6;76.1
41230;BME280;26964;50.428;19.218;2023-12-28T03:02:08;1020.1;;;-0.6;76.1
41230;BME280;26964;50.428;19.218;2023-12-28T03:03:09;1020.1;;;-0.6;76.2
41230;BME280;26964;50.428;19.218;2023-12-28T03:04:10;1020.1;;;-0.6;76.1
41230;BME280;26964;50.428;19.218;2023-12-28T03:05:07;1020.0;;;-0.6;76.1
41230;BME280;26964;50.428;19.218;2023-12-28T03:06:07;1020.1;;;-0.6;76.2
41230;BME280;26964;50.428;19.218;2023-12-28T03:07:08;1020.0;;;-0.6;76.2
41230;BME280;26964;50.428;19.218;2023-12-28T03:08:07;1020.0;;;-0.6;76.2
41230;BME280;26964;50.428;19.218;2023-12-28T03:09:07;1020.0;;;-0.7;76.2
41230;BME280;26964;50.428;19.218;2023-12-28T03:10:08;1020.1;;;-0.7;76.1
41230;BME280;26964;50.428;19.218;2023-12-28T03:11:07;1020.1;;;-0.7;76.2
41230;BME280;26964;50.428;19.218;2023-12-28T03:12:07;1020.0;;;-0.7;76.2
41230;BME280;26964;50.428;19.218;2023-12-28T03:13:07;1020.0;;;-0.7;76.2
41230;BME280;26964;50.428;19.218;2023-12-28T03:14:07;1020.0;;;-0.7;76.2
41230;BME280;26964;50.428;19.218;2023-12-28T03:15:07;1020.0;;;-0.7;76.2
41230;BME280;26964;50.428;19.218;2023-12-28T03:16:07;1020.0;;;-0.7;76.2
41230;BME280;26964;50.428;19.218;2023-12-28T03:17:07;1020.0;;;-0.7;76.3
41230;BME280;26964;50.428;19.218;2023-12-28T03:18:07;1019.9;;;-0.7;76.3
41230;BME280;26964;50.428;19.218;2023-12-28T03:19:07;1019.9;;;-0.7;76.3
41230;BME280;26964;50.428;19.218;2023-12-28T03:20:08;1019.9;;;-0.7;76.3
41230;BME280;26964;50.428;19.218;2023-12-28T03:21:07;1019.9;;;-0.7;76.3
41230;BME280;26964;50.428;19.218;2023-12-28T03:22:07;1019.9;;;-0.7;76.3
41230;BME280;26964;50.428;19.218;2023-12-28T03:23:07;1019.9;;;-0.7;76.3
41230;BME280;26964;50.428;19.218;2023-12-28T03:24:09;1019.8;;;-0.7;76.3
41230;BME280;26964;50.428;19.218;2023-12-28T03:25:11;1019.8;;;-0.7;76.2
41230;BME280;26964;50.428;19.218;2023-12-28T03:26:07;1019.7;;;-0.7;76.2
41230;BME280;26964;50.428;19.218;2023-12-28T03:27:07;1019.8;;;-0.8;76.2
41230;BME280;26964;50.428;19.218;2023-12-28T03:28:07;1019.8;;;-0.8;76.3
41230;BME280;26964;50.428;19.218;2023-12-28T03:29:07;1019.8;;;-0.8;76.3
41230;BME280;26964;50.428;19.218;2023-12-28T03:30:07;1019.8;;;-0.8;76.3
41230;BME280;26964;50.428;19.218;2023-12-28T03:31:07;1019.8;;;-0.8;76.3
41230;BME280;26964;50.428;19.218;2023-12-28T03:32:07;1019.8;;;-0.8;76.3
41230;BME280;26964;50.428;19.218;2023-12-28T03:33:07;1019.7;;;-0.8;76.3
41230;BME280;26964;50.428;19.218;2023-12-28T03:34:07;1019.7;;;-0.8;76.3
41230;BME280;26964;50.428;19.218;2023-12-28T03:35:07;1019.7;;;-0.8;76.3
41230;BME280;26964;50.428;19.218;2023-12-28T03:36:07;1019.8;;;-0.8;76.3
41230;BME280;26964;50.428;19.218;2023-12-28T03:37:07;1019.6;;;-0.8;76.3
41230;BME280;26964;50.428;19.218;2023-12-28T03:38:06;1019.6;;;-0.8;76.3
41230;BME280;26964;50.428;19.218;2023-12-28T03:39:07;1019.6;;;-0.8;76.3
41230;BME280;26964;50.428;19.218;2023-12-28T03:40:07;1019.6;;;-0.8;76.4
41230;BME280;26964;50.428;19.218;2023-12-28T03:42:07;1019.6;;;-0.8;76.4
41230;BME280;26964;50.428;19.218;2023-12-28T03:43:07;1019.6;;;-0.8;76.4
41230;BME280;26964;50.428;19.218;2023-12-28T03:44:07;1019.6;;;-0.8;76.4
41230;BME280;26964;50.428;19.218;2023-12-28T03:45:08;1019.5;;;-0.8;76.4
41230;BME280;26964;50.428;19.218;2023-12-28T03:46:11;1019.4;;;-0.8;76.5
41230;BME280;26964;50.428;19.218;2023-12-28T03:47:07;1019.4;;;-0.8;76.5
41230;BME280;26964;50.428;19.218;2023-12-28T03:48:07;1019.5;;;-0.8;76.5
41230;BME280;26964;50.428;19.218;2023-12-28T03:49:07;1019.5;;;-0.8;76.5
41230;BME280;26964;50.428;19.218;2023-12-28T03:50:07;1019.6;;;-0.8;76.5
41230;BME280;26964;50.428;19.218;2023-12-28T03:51:07;1019.7;;;-0.8;76.5
41230;BME280;26964;50.428;19.218;2023-12-28T03:52:07;1019.7;;;-0.8;76.5
41230;BME280;26964;50.428;19.218;2023-12-28T03:53:07;1019.6;;;-0.8;76.6
41230;BME280;26964;50.428;19.218;2023-12-28T03:54:07;1019.7;;;-0.7;76.6
41230;BME280;26964;50.428;19.218;2023-12-28T03:55:07;1019.7;;;-0.7;76.6
41230;BME280;26964;50.428;19.218;2023-12-28T03:56:06;1019.8;;;-0.7;76.6
41230;BME280;26964;50.428;19.218;2023-12-28T03:57:07;1019.9;;;-0.7;76.6
41230;BME280;26964;50.428;19.218;2023-12-28T03:58:07;1019.8;;;-0.7;76.6
41230;BME280;26964;50.428;19.218;2023-12-28T03:59:06;1019.9;;;-0.7;76.6
41230;BME280;26964;50.428;19.218;2023-12-28T04:00:08;1019.9;;;-0.7;76.6
41230;BME280;26964;50.428;19.218;2023-12-28T04:01:07;1019.9;;;-0.7;76.6
41230;BME280;26964;50.428;19.218;2023-12-28T04:02:07;1019.9;;;-0.7;76.6
41230;BME280;26964;50.428;19.218;2023-12-28T04:03:07;1019.9;;;-0.7;76.6
41230;BME280;26964;50.428;19.218;2023-12-28T04:04:07;1019.9;;;-0.7;76.6
41230;BME280;26964;50.428;19.218;2023-12-28T04:05:07;1020.0;;;-0.7;76.6
41230;BME280;26964;50.428;19.218;2023-12-28T04:06:08;1020.0;;;-0.7;76.6
41230;BME280;26964;50.428;19.218;2023-12-28T04:07:11;1020.0;;;-0.7;76.5
41230;BME280;26964;50.428;19.218;2023-12-28T04:08:07;1020.0;;;-0.7;76.5
41230;BME280;26964;50.428;19.218;2023-12-28T04:09:07;1020.0;;;-0.7;76.6
41230;BME280;26964;50.428;19.218;2023-12-28T04:10:07;1020.1;;;-0.7;76.5
41230;BME280;26964;50.428;19.218;2023-12-28T04:11:07;1020.0;;;-0.7;76.6
41230;BME280;26964;50.428;19.218;2023-12-28T04:12:07;1020.0;;;-0.7;76.5
41230;BME280;26964;50.428;19.218;2023-12-28T04:13:07;1020.0;;;-0.7;76.5
41230;BME280;26964;50.428;19.218;2023-12-28T04:14:07;1020.0;;;-0.7;76.5
41230;BME280;26964;50.428;19.218;2023-12-28T04:15:06;1020.1;;;-0.7;76.5
41230;BME280;26964;50.428;19.218;2023-12-28T04:16:06;1020.0;;;-0.7;76.5
41230;BME280;26964;50.428;19.218;2023-12-28T04:17:07;1020.0;;;-0.7;76.5
41230;BME280;26964;50.428;19.218;2023-12-28T04:18:07;1020.0;;;-0.7;76.2
41230;BME280;26964;50.428;19.218;2023-12-28T04:19:07;1020.1;;;-0.7;76.6
41230;BME280;26964;50.428;19.218;2023-12-28T04:20:07;1020.0;;;-0.7;76.6
41230;BME280;26964;50.428;19.218;2023-12-28T04:21:08;1020.0;;;-0.7;76.6
41230;BME280;26964;50.428;19.218;2023-12-28T04:22:07;1020.0;;;-0.7;76.6
41230;BME280;26964;50.428;19.218;2023-12-28T04:23:07;1020.0;;;-0.7;76.6
41230;BME280;26964;50.428;19.218;2023-12-28T04:24:06;1020.0;;;-0.7;76.6
41230;BME280;26964;50.428;19.218;2023-12-28T04:25:07;1020.1;;;-0.7;76.6
41230;BME280;26964;50.428;19.218;2023-12-28T04:26:07;1020.1;;;-0.8;76.6
41230;BME280;26964;50.428;19.218;2023-12-28T04:27:08;1020.1;;;-0.7;76.6
41230;BME280;26964;50.428;19.218;2023-12-28T04:28:06;1020.1;;;-0.8;76.6
41230;BME280;26964;50.428;19.218;2023-12-28T04:29:06;1020.1;;;-0.8;76.6
41230;BME280;26964;50.428;19.218;2023-12-28T04:30:07;1020.1;;;-0.7;76.7
41230;BME280;26964;50.428;19.218;2023-12-28T04:31:06;1020.1;;;-0.7;76.7
41230;BME280;26964;50.428;19.218;2023-12-28T04:32:07;1020.1;;;-0.7;76.7
41230;BME280;26964;50.428;19.218;2023-12-28T04:33:07;1020.0;;;-0.8;76.6
41230;BME280;26964;50.428;19.218;2023-12-28T04:34:07;1020.1;;;-0.8;76.6
41230;BME280;26964;50.428;19.218;2023-12-28T04:35:07;1020.0;;;-0.8;76.6
41230;BME280;26964;50.428;19.218;2023-12-28T04:36:07;1020.0;;;-0.8;76.6
41230;BME280;26964;50.428;19.218;2023-12-28T04:37:07;1019.9;;;-0.8;76.6
41230;BME280;26964;50.428;19.218;2023-12-28T04:38:08;1020.0;;;-0.8;76.6
41230;BME280;26964;50.428;19.218;2023-12-28T04:39:07;1019.9;;;-0.8;76.6
41230;BME280;26964;50.428;19.218;2023-12-28T04:40:07;1019.9;;;-0.8;76.6
41230;BME280;26964;50.428;19.218;2023-12-28T04:41:09;1019.8;;;-0.8;76.6
41230;BME280;26964;50.428;19.218;2023-12-28T04:42:07;1019.9;;;-0.8;76.6
41230;BME280;26964;50.428;19.218;2023-12-28T04:43:07;1019.9;;;-0.8;76.6
41230;BME280;26964;50.428;19.218;2023-12-28T04:44:07;1020.0;;;-0.8;76.7
41230;BME280;26964;50.428;19.218;2023-12-28T04:45:07;1020.0;;;-0.8;76.7
41230;BME280;26964;50.428;19.218;2023-12-28T04:46:07;1020.0;;;-0.8;76.7
41230;BME280;26964;50.428;19.218;2023-12-28T04:47:07;1019.9;;;-0.8;76.8
41230;BME280;26964;50.428;19.218;2023-12-28T04:48:08;1019.9;;;-0.8;76.8
41230;BME280;26964;50.428;19.218;2023-12-28T04:49:07;1019.9;;;-0.8;76.9
41230;BME280;26964;50.428;19.218;2023-12-28T04:50:07;1019.9;;;-0.8;76.9
41230;BME280;26964;50.428;19.218;2023-12-28T04:51:07;1020.0;;;-0.8;76.9
41230;BME280;26964;50.428;19.218;2023-12-28T04:52:06;1019.8;;;-0.8;76.9
41230;BME280;26964;50.428;19.218;2023-12-28T04:53:07;1019.9;;;-0.8;76.9
41230;BME280;26964;50.428;19.218;2023-12-28T04:54:07;1019.9;;;-0.8;77.0
41230;BME280;26964;50.428;19.218;2023-12-28T04:55:06;1019.8;;;-0.8;77.0
41230;BME280;26964;50.428;19.218;2023-12-28T04:56:06;1019.9;;;-0.8;77.0
41230;BME280;26964;50.428;19.218;2023-12-28T04:57:07;1019.9;;;-0.8;77.0
41230;BME280;26964;50.428;19.218;2023-12-28T04:58:07;1019.9;;;-0.7;76.9
41230;BME280;26964;50.428;19.218;2023-12-28T04:59:07;1019.8;;;-0.8;76.9
41230;BME280;26964;50.428;19.218;2023-12-28T05:00:07;1019.8;;;-0.7;76.9
41230;BME280;26964;50.428;19.218;2023-12-28T05:01:07;1019.8;;;-0.8;76.9
41230;BME280;26964;50.428;19.218;2023-12-28T05:02:06;1019.7;;;-0.7;76.9
41230;BME280;26964;50.428;19.218;2023-12-28T05:03:06;1019.7;;;-0.7;76.9
41230;BME280;26964;50.428;19.218;2023-12-28T05:04:07;1019.7;;;-0.7;76.9
41230;BME280;26964;50.428;19.218;2023-12-28T05:05:07;1019.6;;;-0.8;76.9
41230;BME280;26964;50.428;19.218;2023-12-28T05:06:07;1019.7;;;-0.7;76.9
41230;BME280;26964;50.428;19.218;2023-12-28T05:07:07;1019.7;;;-0.8;77.0
41230;BME280;26964;50.428;19.218;2023-12-28T05:08:07;1019.7;;;-0.7;77.1
41230;BME280;26964;50.428;19.218;2023-12-28T05:09:08;1019.7;;;-0.7;77.2
41230;BME280;26964;50.428;19.218;2023-12-28T05:10:07;1019.5;;;-0.7;77.3
41230;BME280;26964;50.428;19.218;2023-12-28T05:11:07;1019.5;;;-0.7;77.4
41230;BME280;26964;50.428;19.218;2023-12-28T05:12:06;1019.6;;;-0.6;77.5
41230;BME280;26964;50.428;19.218;2023-12-28T05:13:07;1019.6;;;-0.6;77.6
41230;BME280;26964;50.428;19.218;2023-12-28T05:14:07;1019.5;;;-0.6;77.6
41230;BME280;26964;50.428;19.218;2023-12-28T05:15:07;1019.5;;;-0.6;77.7
41230;BME280;26964;50.428;19.218;2023-12-28T05:16:07;1019.4;;;-0.5;77.7
41230;BME280;26964;50.428;19.218;2023-12-28T05:17:07;1019.5;;;-0.5;77.8
41230;BME280;26964;50.428;19.218;2023-12-28T05:18:06;1019.5;;;-0.4;78.0
41230;BME280;26964;50.428;19.218;2023-12-28T05:19:07;1019.5;;;-0.4;78.0
41230;BME280;26964;50.428;19.218;2023-12-28T05:20:07;1019.4;;;-0.3;78.1
41230;BME280;26964;50.428;19.218;2023-12-28T05:21:07;1019.5;;;-0.3;78.1
41230;BME280;26964;50.428;19.218;2023-12-28T05:22:07;1019.4;;;-0.3;78.1
41230;BME280;26964;50.428;19.218;2023-12-28T05:23:07;1019.4;;;-0.2;78.0
41230;BME280;26964;50.428;19.218;2023-12-28T05:24:06;1019.4;;;-0.2;77.9
41230;BME280;26964;50.428;19.218;2023-12-28T05:25:07;1019.5;;;-0.2;77.8
41230;BME280;26964;50.428;19.218;2023-12-28T05:26:07;1019.4;;;-0.2;77.9
41230;BME280;26964;50.428;19.218;2023-12-28T05:27:07;1019.5;;;-0.1;77.9
41230;BME280;26964;50.428;19.218;2023-12-28T05:28:07;1019.6;;;-0.1;77.9
41230;BME280;26964;50.428;19.218;2023-12-28T05:29:08;1019.5;;;-0.1;77.8
41230;BME280;26964;50.428;19.218;2023-12-28T05:30:08;1019.5;;;-0.1;77.8
41230;BME280;26964;50.428;19.218;2023-12-28T05:31:07;1019.5;;;-0.1;77.8
41230;BME280;26964;50.428;19.218;2023-12-28T05:32:06;1019.5;;;-0.0;77.8
41230;BME280;26964;50.428;19.218;2023-12-28T05:33:07;1019.5;;;-0.0;77.7